Kaneohe Bay, Hawaii
Current Conditions -  °F | °C
As of 3:57 PM on Sunday 25 Jan 2015 (Local Time) from PHNG Reporting Station
Overcast Overcast  
Wind Chill: 72°   Ceiling: 3500
Heat Index: 72°   Visibility: 7mi
Dew Point: 61°   Wind: 16mph
Humidity: 68%   Direction: 40°NE
Pressure: 30"   Gusts: 22mph
Location:  21.42°N, 157.8°W
Report Text: PHNG 260157Z 04014G19KT 7SM SCT028 OVC035 22/16 A3000 RMK AO2 SLP154 T02220161 $
Loading
Personal Weather Stations






























Interactive Weather Map New forecast layout! Learn more

10-Day Weather Forecast

Advertisements
Track Severe Weather on mobile